createdAt,value
2022-10-11T00:01:34.493Z,101921.59
2022-10-11T00:04:01.274Z,101919.78
2022-10-11T00:06:27.793Z,101921.59
2022-10-11T00:08:54.258Z,101928.34
2022-10-11T00:11:20.741Z,101933.06
2022-10-11T00:13:47.240Z,101940.22
2022-10-11T00:16:15.314Z,101937.88
2022-10-11T00:18:42.363Z,101945.47
2022-10-11T00:21:13.046Z,101935.13
2022-10-11T00:23:40.644Z,101943.13
2022-10-11T00:26:10.107Z,101944.50
2022-10-11T00:28:37.230Z,101937.03
2022-10-11T00:31:11.478Z,101946.28
2022-10-11T00:33:38.051Z,101944.75
2022-10-11T00:36:05.254Z,101941.69
2022-10-11T00:38:32.555Z,101940.59
2022-10-11T00:40:59.691Z,101946.25
2022-10-11T00:43:29.166Z,101944.88
2022-10-11T00:45:55.503Z,101951.06
2022-10-11T00:48:43.672Z,101957.56
2022-10-11T00:51:43.107Z,101961.69
2022-10-11T00:54:15.101Z,101960.00
2022-10-11T00:56:44.077Z,101960.84
2022-10-11T00:59:14.379Z,101965.25
2022-10-11T01:01:41.039Z,101968.59
2022-10-11T01:04:07.709Z,101965.78
2022-10-11T01:06:35.053Z,101968.31
2022-10-11T01:09:01.790Z,101966.34
2022-10-11T01:11:31.087Z,101966.78
2022-10-11T01:14:15.827Z,101968.25
2022-10-11T01:16:55.059Z,101970.63
2022-10-11T01:19:43.421Z,101961.63
2022-10-11T01:22:28.736Z,101971.81
2022-10-11T01:25:21.217Z,101961.19
2022-10-11T01:28:06.711Z,101970.28
2022-10-11T01:30:34.257Z,101961.88
2022-10-11T01:33:25.116Z,101963.94
2022-10-11T01:36:01.334Z,101977.53
2022-10-11T01:38:37.093Z,101978.91
2022-10-11T01:41:10.654Z,101970.66
2022-10-11T01:43:40.241Z,101975.06
2022-10-11T01:46:08.757Z,101966.78
2022-10-11T01:48:50.446Z,101976.38
2022-10-11T01:51:21.911Z,101981.06
2022-10-11T01:54:01.536Z,101984.63
2022-10-11T01:56:46.297Z,101982.59
2022-10-11T01:59:35.265Z,101982.44
2022-10-11T02:02:27.251Z,101985.16
2022-10-11T02:05:02.621Z,101984.72
2022-10-11T02:07:49.344Z,101979.91
2022-10-11T02:10:26.697Z,101986.69
2022-10-11T02:13:00.726Z,101982.91
2022-10-11T02:15:30.563Z,101984.28
2022-10-11T02:18:00.937Z,101984.19
2022-10-11T02:20:30.120Z,101985.34
2022-10-11T02:23:01.796Z,101988.03
2022-10-11T02:25:32.669Z,101989.44
2022-10-11T02:28:02.543Z,101987.66
2022-10-11T02:30:30.717Z,101991.34
2022-10-11T02:32:58.808Z,101993.28
2022-10-11T02:35:29.803Z,101994.25
2022-10-11T02:38:05.528Z,101999.34
2022-10-11T02:40:41.484Z,102006.50
2022-10-11T02:43:13.274Z,101996.59
2022-10-11T02:45:48.303Z,102003.22
2022-10-11T02:48:15.531Z,102001.41
2022-10-11T02:50:42.724Z,102005.34
2022-10-11T02:53:09.798Z,102007.94
2022-10-11T02:55:36.607Z,102008.84
2022-10-11T02:58:03.818Z,102016.56
2022-10-11T03:00:30.643Z,102009.72
2022-10-11T03:02:57.030Z,102013.94
2022-10-11T03:05:23.585Z,102005.50
2022-10-11T03:07:50.049Z,102017.63
2022-10-11T03:10:16.806Z,102020.56
2022-10-11T03:12:43.352Z,102015.69
2022-10-11T03:15:10.418Z,102013.41
2022-10-11T03:17:37.566Z,102020.69
2022-10-11T03:20:06.035Z,102025.13
2022-10-11T03:22:32.612Z,102025.66
2022-10-11T03:25:03.616Z,102035.41
2022-10-11T03:27:31.493Z,102032.94
2022-10-11T03:29:57.999Z,102036.84
2022-10-11T03:32:24.767Z,102033.19
2022-10-11T03:34:51.248Z,102035.38
2022-10-11T03:37:18.293Z,102042.97
2022-10-11T03:39:45.657Z,102036.66
2022-10-11T03:42:13.531Z,102039.63
2022-10-11T03:44:41.564Z,102039.63
2022-10-11T03:47:08.436Z,102039.63
2022-10-11T03:49:36.144Z,102045.59
2022-10-11T03:52:05.158Z,102045.13
2022-10-11T03:54:31.746Z,102042.72
2022-10-11T03:56:58.694Z,102050.81
2022-10-11T03:59:25.254Z,102043.94
2022-10-11T04:01:51.678Z,102050.56
2022-10-11T04:04:18.231Z,102045.47
2022-10-11T04:06:44.666Z,102046.06
2022-10-11T04:09:11.096Z,102054.38
2022-10-11T04:11:37.499Z,102043.44
2022-10-11T04:14:03.934Z,102051.78
2022-10-11T04:16:30.358Z,102046.88
2022-10-11T04:18:56.803Z,102050.06
2022-10-11T04:21:23.259Z,102063.53
2022-10-11T04:23:49.671Z,102066.28
2022-10-11T04:26:16.201Z,102063.16
2022-10-11T04:28:42.661Z,102059.38
2022-10-11T04:31:09.122Z,102067.50
2022-10-11T04:33:35.877Z,102064.88
2022-10-11T04:36:02.933Z,102065.91
2022-10-11T04:38:29.601Z,102074.84
2022-10-11T04:40:56.058Z,102071.53
2022-10-11T04:43:22.499Z,102077.59
2022-10-11T04:45:52.334Z,102076.63
2022-10-11T04:48:21.802Z,102079.13
2022-10-11T04:50:48.314Z,102083.28
2022-10-11T04:53:14.803Z,102084.00
2022-10-11T04:55:41.224Z,102077.59
2022-10-11T04:58:07.657Z,102086.97
2022-10-11T05:00:34.174Z,102086.13
2022-10-11T05:03:00.781Z,102093.38
2022-10-11T05:05:27.252Z,102091.47
2022-10-11T05:07:53.644Z,102092.06
2022-10-11T05:10:20.118Z,102096.72
2022-10-11T05:12:46.560Z,102096.81
2022-10-11T05:15:13.203Z,102099.53
2022-10-11T05:17:39.573Z,102105.63
2022-10-11T05:20:06.822Z,102104.28
2022-10-11T05:22:33.664Z,102109.13
2022-10-11T05:25:00.112Z,102109.97
2022-10-11T05:27:26.539Z,102116.00
2022-10-11T05:29:53.016Z,102105.16
2022-10-11T05:32:19.490Z,102118.25
2022-10-11T05:34:45.946Z,102110.03
2022-10-11T05:37:12.434Z,102118.13
2022-10-11T05:39:38.810Z,102116.59
2022-10-11T05:42:09.593Z,102115.19
2022-10-11T05:44:36.347Z,102118.25
2022-10-11T05:47:03.238Z,102117.81
2022-10-11T05:49:29.834Z,102117.03
2022-10-11T05:51:56.609Z,102127.44
2022-10-11T05:54:23.230Z,102126.72
2022-10-11T05:56:49.653Z,102129.31
2022-10-11T05:59:16.097Z,102136.22
2022-10-11T06:01:42.563Z,102142.06
2022-10-11T06:04:09.190Z,102135.63
2022-10-11T06:06:35.589Z,102143.47
2022-10-11T06:09:01.994Z,102141.09
2022-10-11T06:11:28.453Z,102142.19
2022-10-11T06:13:56.248Z,102141.06
2022-10-11T06:16:22.839Z,102148.53
2022-10-11T06:18:49.368Z,102147.81
2022-10-11T06:21:15.784Z,102149.13
2022-10-11T06:23:42.259Z,102152.53
2022-10-11T06:26:10.363Z,102156.56
2022-10-11T06:28:37.412Z,102155.97
2022-10-11T06:31:05.832Z,102157.50
2022-10-11T06:33:32.685Z,102158.69
2022-10-11T06:36:02.432Z,102158.47
2022-10-11T06:38:31.910Z,102165.22
2022-10-11T06:40:58.352Z,102161.97
2022-10-11T06:43:25.340Z,102171.03
2022-10-11T06:45:51.819Z,102170.91
2022-10-11T06:48:18.277Z,102163.53
2022-10-11T06:50:59.458Z,102172.69
2022-10-11T06:53:27.886Z,102180.44
2022-10-11T06:55:54.249Z,102179.78
2022-10-11T06:58:20.703Z,102185.69
2022-10-11T07:00:47.122Z,102186.56
2022-10-11T07:03:13.728Z,102195.81
2022-10-11T07:05:40.090Z,102200.03
2022-10-11T07:08:06.522Z,102200.53
2022-10-11T07:10:32.881Z,102199.28
2022-10-11T07:12:59.294Z,102198.69
2022-10-11T07:15:25.727Z,102198.13
2022-10-11T07:17:52.103Z,102195.47
2022-10-11T07:20:18.529Z,102205.06
2022-10-11T07:22:44.918Z,102206.00
2022-10-11T07:25:11.332Z,102220.31
2022-10-11T07:27:37.726Z,102220.31
2022-10-11T07:30:04.574Z,102218.19
2022-10-11T07:32:31.309Z,102226.28
2022-10-11T07:34:57.790Z,102215.47
2022-10-11T07:37:24.262Z,102219.56
2022-10-11T07:39:50.871Z,102211.72
2022-10-11T07:42:17.344Z,102214.06
2022-10-11T07:44:43.812Z,102223.66
2022-10-11T07:47:11.412Z,102214.38
2022-10-11T07:49:38.009Z,102225.03
2022-10-11T07:52:04.578Z,102221.69
2022-10-11T07:54:31.252Z,102217.53
2022-10-11T07:56:57.645Z,102219.19
2022-10-11T07:59:24.122Z,102224.88
2022-10-11T08:01:50.586Z,102227.22
2022-10-11T08:04:17.037Z,102232.06
2022-10-11T08:06:43.546Z,102229.59
2022-10-11T08:09:10.362Z,102241.34
2022-10-11T08:11:37.985Z,102238.28
2022-10-11T08:14:08.715Z,102242.16
2022-10-11T08:16:36.188Z,102248.47
2022-10-11T08:19:03.367Z,102239.25
2022-10-11T08:21:30.116Z,102244.75
2022-10-11T08:23:56.701Z,102247.38
2022-10-11T08:26:23.171Z,102245.41
2022-10-11T08:28:49.769Z,102253.16
2022-10-11T08:31:16.773Z,102255.97
2022-10-11T08:33:43.669Z,102253.44
2022-10-11T08:36:11.454Z,102250.72
2022-10-11T08:38:39.547Z,102255.72
2022-10-11T08:41:26.946Z,102261.25
2022-10-11T08:44:15.225Z,102250.03
2022-10-11T08:46:45.687Z,102260.28
2022-10-11T08:49:15.368Z,102274.09
2022-10-11T08:51:52.671Z,102266.91
2022-10-11T08:54:27.169Z,102253.66
2022-10-11T08:56:53.825Z,102270.13
2022-10-11T08:59:36.604Z,102265.69
2022-10-11T09:02:23.299Z,102267.09
2022-10-11T09:04:53.605Z,102266.22
2022-10-11T09:07:43.997Z,102270.66
2022-10-11T09:10:38.181Z,102265.69
2022-10-11T09:13:31.456Z,102265.66
2022-10-11T09:16:15.998Z,102275.63
2022-10-11T09:18:45.491Z,102266.78
2022-10-11T09:21:39.950Z,102269.16
2022-10-11T09:24:24.915Z,102269.97
2022-10-11T09:26:56.127Z,102272.88
2022-10-11T09:29:37.542Z,102265.41
2022-10-11T09:32:14.874Z,102269.72
2022-10-11T09:34:41.995Z,102276.78
2022-10-11T09:37:23.466Z,102274.16
2022-10-11T09:40:10.375Z,102272.22
2022-10-11T09:42:36.843Z,102264.88
2022-10-11T09:45:20.918Z,102267.78
2022-10-11T09:47:51.049Z,102261.81
2022-10-11T09:50:23.242Z,102269.03
2022-10-11T09:52:56.072Z,102280.13
2022-10-11T09:55:39.558Z,102275.25
2022-10-11T09:58:40.390Z,102270.84
2022-10-11T10:01:08.582Z,102279.97
2022-10-11T10:03:37.809Z,102272.34
2022-10-11T10:06:32.207Z,102276.34
2022-10-11T10:09:30.459Z,102278.56
2022-10-11T10:11:57.840Z,102281.19
2022-10-11T10:14:28.216Z,102279.94
2022-10-11T10:17:18.182Z,102276.56
2022-10-11T10:19:54.787Z,102277.44
2022-10-11T10:22:29.614Z,102286.38
2022-10-11T10:24:59.944Z,102281.19
2022-10-11T10:27:30.642Z,102280.25
2022-10-11T10:30:08.136Z,102277.66
2022-10-11T10:32:43.747Z,102282.84
2022-10-11T10:35:28.920Z,102285.91
2022-10-11T10:38:01.138Z,102276.44
2022-10-11T10:40:47.805Z,102272.59
2022-10-11T10:43:17.192Z,102278.59
2022-10-11T10:46:03.439Z,102272.88
2022-10-11T10:49:23.291Z,102265.72
2022-10-11T10:51:47.739Z,102262.38
2022-10-11T10:54:20.232Z,102263.72
2022-10-11T10:56:55.634Z,102271.19
2022-10-11T10:59:46.993Z,102265.44
2022-10-11T11:02:39.643Z,102271.41
2022-10-11T11:05:44.522Z,102264.19
2022-10-11T11:08:26.805Z,102265.91
2022-10-11T11:11:26.787Z,102256.28
2022-10-11T11:14:14.233Z,102250.88
2022-10-11T11:16:48.148Z,102260.31
2022-10-11T11:19:42.531Z,102257.13
2022-10-11T11:22:32.830Z,102247.47
2022-10-11T11:25:18.185Z,102247.38
2022-10-11T11:27:56.798Z,102245.66
2022-10-11T11:30:29.995Z,102240.09
2022-10-11T11:33:22.454Z,102236.88
2022-10-11T11:35:53.623Z,102242.22
2022-10-11T11:38:51.019Z,102238.78
2022-10-11T11:41:28.408Z,102236.00
2022-10-11T11:44:12.902Z,102231.97
2022-10-11T11:46:50.258Z,102230.66
2022-10-11T11:49:46.022Z,102218.41
2022-10-11T11:52:36.303Z,102217.31
2022-10-11T11:55:07.460Z,102215.72
2022-10-11T11:57:53.547Z,102216.38
2022-10-11T12:00:22.301Z,102210.41
2022-10-11T12:03:08.849Z,102210.19
2022-10-11T12:05:36.658Z,102211.44
2022-10-11T12:08:07.344Z,102216.88
2022-10-11T12:10:55.548Z,102199.16
2022-10-11T12:13:36.138Z,102201.81
2022-10-11T12:16:12.540Z,102206.59
2022-10-11T12:18:57.261Z,102198.34
2022-10-11T12:21:31.872Z,102192.16
2022-10-11T12:23:59.832Z,102191.75
2022-10-11T12:26:29.370Z,102180.91
2022-10-11T12:29:18.095Z,102185.56
2022-10-11T12:31:47.291Z,102182.38
2022-10-11T12:34:30.980Z,102174.66
2022-10-11T12:36:57.443Z,102180.31
2022-10-11T12:39:23.808Z,102176.56
2022-10-11T12:41:50.374Z,102175.41
2022-10-11T12:44:22.372Z,102167.41
2022-10-11T12:46:54.741Z,102159.41
2022-10-11T12:49:25.576Z,102159.69
2022-10-11T12:52:13.737Z,102161.81
2022-10-11T12:54:54.731Z,102154.72
2022-10-11T12:57:30.351Z,102157.56
2022-10-11T13:00:18.182Z,102156.41
2022-10-11T13:02:44.914Z,102155.31
2022-10-11T13:05:26.150Z,102147.66
2022-10-11T13:07:59.158Z,102147.03
2022-10-11T13:10:38.425Z,102149.16
2022-10-11T13:13:20.227Z,102147.16
2022-10-11T13:15:47.033Z,102148.41
2022-10-11T13:18:16.429Z,102139.22
2022-10-11T13:20:42.989Z,102144.97
2022-10-11T13:23:27.095Z,102139.00
2022-10-11T13:25:54.509Z,102129.81
2022-10-11T13:28:22.135Z,102131.88
2022-10-11T13:30:52.866Z,102130.59
2022-10-11T13:33:24.910Z,102139.44
2022-10-11T13:35:52.771Z,102127.19
2022-10-11T13:38:26.394Z,102132.91
2022-10-11T13:40:52.900Z,102132.09
2022-10-11T13:43:21.939Z,102131.28
2022-10-11T13:45:48.517Z,102126.69
2022-10-11T13:48:16.429Z,102123.91
2022-10-11T13:50:46.510Z,102124.31
2022-10-11T13:53:12.895Z,102129.47
2022-10-11T13:55:41.967Z,102124.38
2022-10-11T13:58:23.556Z,102123.28
2022-10-11T14:00:59.088Z,102117.31
2022-10-11T14:03:43.450Z,102120.47
2022-10-11T14:06:10.297Z,102112.81
2022-10-11T14:08:47.845Z,102110.81
2022-10-11T14:11:15.487Z,102107.66
2022-10-11T14:13:44.987Z,102113.84
2022-10-11T14:16:13.980Z,102106.91
2022-10-11T14:18:48.981Z,102111.97
2022-10-11T14:21:24.713Z,102102.66
2022-10-11T14:23:57.937Z,102109.38
2022-10-11T14:26:26.204Z,102104.75
2022-10-11T14:29:04.822Z,102100.59
2022-10-11T14:31:31.486Z,102101.81
2022-10-11T14:33:58.511Z,102100.66
2022-10-11T14:36:26.018Z,102106.34
2022-10-11T14:38:53.253Z,102102.78
2022-10-11T14:41:19.952Z,102102.06
2022-10-11T14:43:46.498Z,102097.97
2022-10-11T14:46:23.094Z,102095.94
2022-10-11T14:48:55.632Z,102100.59
2022-10-11T14:51:27.767Z,102100.03
2022-10-11T14:53:54.338Z,102097.03
2022-10-11T14:56:23.755Z,102102.19
2022-10-11T14:58:55.915Z,102101.47
2022-10-11T15:01:22.434Z,102095.88
2022-10-11T15:03:49.115Z,102089.66
2022-10-11T15:06:19.442Z,102094.13
2022-10-11T15:08:46.283Z,102093.50
2022-10-11T15:11:15.493Z,102089.38
2022-10-11T15:13:41.878Z,102089.94
2022-10-11T15:16:08.997Z,102085.47
2022-10-11T15:18:35.562Z,102092.69
2022-10-11T15:21:02.269Z,102088.75
2022-10-11T15:23:28.953Z,102084.44
2022-10-11T15:25:55.767Z,102081.34
2022-10-11T15:28:31.348Z,102085.72
2022-10-11T15:30:58.615Z,102084.75
2022-10-11T15:33:25.298Z,102085.19
2022-10-11T15:35:52.096Z,102084.44
2022-10-11T15:38:21.040Z,102084.34
2022-10-11T15:40:48.713Z,102086.38
2022-10-11T15:43:15.849Z,102087.75
2022-10-11T15:45:43.042Z,102090.44
2022-10-11T15:48:15.523Z,102088.00
2022-10-11T15:50:42.456Z,102082.25
2022-10-11T15:53:18.218Z,102091.72
2022-10-11T15:55:47.079Z,102086.28
2022-10-11T15:58:20.472Z,102086.47
2022-10-11T16:00:48.576Z,102076.03
2022-10-11T16:03:16.064Z,102081.03
2022-10-11T16:05:43.036Z,102079.34
2022-10-11T16:08:10.595Z,102073.44
2022-10-11T16:10:37.466Z,102070.59
2022-10-11T16:13:04.255Z,102069.13
2022-10-11T16:15:30.834Z,102078.06
2022-10-11T16:17:57.334Z,102074.88
2022-10-11T16:20:25.673Z,102078.16
2022-10-11T16:22:54.042Z,102078.31
2022-10-11T16:25:24.063Z,102079.28
2022-10-11T16:27:51.655Z,102077.25
2022-10-11T16:30:19.748Z,102080.56
2022-10-11T16:32:46.650Z,102087.16
2022-10-11T16:35:14.862Z,102091.91
2022-10-11T16:37:41.400Z,102082.22
2022-10-11T16:40:08.689Z,102086.34
2022-10-11T16:42:35.382Z,102076.69
2022-10-11T16:45:01.755Z,102088.53
2022-10-11T16:47:28.179Z,102089.81
2022-10-11T16:49:54.569Z,102091.03
2022-10-11T16:52:21.166Z,102083.38
2022-10-11T16:54:47.900Z,102082.97
2022-10-11T16:57:16.515Z,102083.97
2022-10-11T16:59:43.130Z,102082.97
2022-10-11T17:02:16.514Z,102089.31
2022-10-11T17:04:43.109Z,102087.69
2022-10-11T17:07:12.855Z,102087.16
2022-10-11T17:09:43.943Z,102088.81
2022-10-11T17:12:13.149Z,102084.53
2022-10-11T17:14:40.788Z,102083.41
2022-10-11T17:17:09.590Z,102081.38
2022-10-11T17:19:42.584Z,102091.75
2022-10-11T17:22:12.380Z,102083.63
2022-10-11T17:24:39.318Z,102080.56
2022-10-11T17:27:06.634Z,102087.28
2022-10-11T17:29:33.893Z,102086.91
2022-10-11T17:32:00.838Z,102087.75
2022-10-11T17:34:27.528Z,102090.53
2022-10-11T17:36:54.008Z,102089.59
2022-10-11T17:39:22.418Z,102088.13
2022-10-11T17:41:49.730Z,102090.22
2022-10-11T17:44:19.568Z,102093.34
2022-10-11T17:46:46.611Z,102088.47
2022-10-11T17:49:13.965Z,102087.38
2022-10-11T17:51:41.504Z,102085.63
2022-10-11T17:54:12.352Z,102090.88
2022-10-11T17:56:40.872Z,102095.22
2022-10-11T17:59:08.709Z,102087.88
2022-10-11T18:01:35.640Z,102086.13
2022-10-11T18:04:04.228Z,102093.16
2022-10-11T18:06:33.782Z,102088.06
2022-10-11T18:09:02.056Z,102085.16
2022-10-11T18:11:28.888Z,102088.38
2022-10-11T18:13:55.609Z,102083.66
2022-10-11T18:16:24.048Z,102088.06
2022-10-11T18:18:50.570Z,102082.00
2022-10-11T18:21:18.618Z,102082.81
2022-10-11T18:23:45.533Z,102078.84
2022-10-11T18:26:17.336Z,102082.97
2022-10-11T18:28:44.626Z,102083.25
2022-10-11T18:31:17.334Z,102084.81
2022-10-11T18:33:45.973Z,102087.56
2022-10-11T18:36:15.229Z,102079.41
2022-10-11T18:38:46.287Z,102085.91
2022-10-11T18:41:15.791Z,102078.28
2022-10-11T18:43:42.267Z,102078.16
2022-10-11T18:46:13.969Z,102079.13
2022-10-11T18:48:42.058Z,102080.38
2022-10-11T18:51:14.865Z,102082.41
2022-10-11T18:53:42.294Z,102085.28
2022-10-11T18:56:11.329Z,102081.72
2022-10-11T18:58:39.207Z,102073.84
2022-10-11T19:01:20.413Z,102082.25
2022-10-11T19:03:49.045Z,102082.25
2022-10-11T19:06:17.757Z,102080.03
2022-10-11T19:08:45.930Z,102079.47
2022-10-11T19:11:13.998Z,102075.03
2022-10-11T19:13:40.619Z,102076.25
2022-10-11T19:16:08.464Z,102073.91
2022-10-11T19:18:35.437Z,102077.34
2022-10-11T19:21:11.726Z,102079.28
2022-10-11T19:23:43.154Z,102079.13
2022-10-11T19:26:18.186Z,102071.13
2022-10-11T19:28:45.751Z,102073.91
2022-10-11T19:31:16.804Z,102076.06
2022-10-11T19:33:45.178Z,102067.50
2022-10-11T19:36:16.427Z,102076.00
2022-10-11T19:38:45.880Z,102075.75
2022-10-11T19:41:13.782Z,102078.78
2022-10-11T19:43:40.601Z,102079.03
2022-10-11T19:46:10.170Z,102077.88
2022-10-11T19:48:38.125Z,102083.53
2022-10-11T19:51:13.980Z,102077.88
2022-10-11T19:53:41.330Z,102071.94
2022-10-11T19:56:12.046Z,102069.41
2022-10-11T19:58:38.899Z,102073.94
2022-10-11T20:01:10.263Z,102074.22
2022-10-11T20:03:38.116Z,102075.88
2022-10-11T20:06:09.189Z,102074.47
2022-10-11T20:08:42.679Z,102073.66
2022-10-11T20:11:09.853Z,102072.31
2022-10-11T20:13:37.315Z,102079.72
2022-10-11T20:16:10.338Z,102073.84
2022-10-11T20:18:40.385Z,102081.03
2022-10-11T20:21:09.701Z,102080.31
2022-10-11T20:23:36.163Z,102079.94
2022-10-11T20:26:06.822Z,102084.19
2022-10-11T20:28:34.447Z,102082.94
2022-10-11T20:31:03.187Z,102070.19
2022-10-11T20:33:32.020Z,102066.00
2022-10-11T20:36:07.056Z,102067.44
2022-10-11T20:38:35.222Z,102069.22
2022-10-11T20:41:10.355Z,102073.13
2022-10-11T20:43:36.883Z,102075.91
2022-10-11T20:46:12.384Z,102074.69
2022-10-11T20:48:43.164Z,102073.56
2022-10-11T20:51:10.743Z,102076.50
2022-10-11T20:53:38.503Z,102075.00
2022-10-11T20:56:09.555Z,102077.94
2022-10-11T20:58:36.060Z,102071.69
2022-10-11T21:01:39.529Z,102069.97
2022-10-11T21:04:07.940Z,102073.22
2022-10-11T21:06:34.625Z,102071.50
2022-10-11T21:09:39.299Z,102073.13
2022-10-11T21:12:06.175Z,102064.75
2022-10-11T21:14:32.587Z,102062.50
2022-10-11T21:16:59.031Z,102066.53
2022-10-11T21:19:25.399Z,102055.59
2022-10-11T21:21:53.818Z,102053.94
2022-10-11T21:24:20.674Z,102052.66
2022-10-11T21:26:47.727Z,102053.03
2022-10-11T21:29:14.292Z,102047.56
2022-10-11T21:31:40.918Z,102048.13
2022-10-11T21:34:07.455Z,102049.00
2022-10-11T21:36:34.282Z,102047.41
2022-10-11T21:39:00.674Z,102049.72
2022-10-11T21:41:30.005Z,102042.25
2022-10-11T21:43:57.204Z,102044.84
2022-10-11T21:46:41.747Z,102040.47
2022-10-11T21:49:12.638Z,102042.25
2022-10-11T21:51:39.039Z,102037.66
2022-10-11T21:54:05.740Z,102041.91
2022-10-11T21:56:32.222Z,102037.84
2022-10-11T21:58:58.745Z,102044.72
2022-10-11T22:01:25.233Z,102045.28
2022-10-11T22:03:54.012Z,102049.91
2022-10-11T22:06:21.359Z,102049.22
2022-10-11T22:08:48.899Z,102054.81
2022-10-11T22:11:15.562Z,102051.56
2022-10-11T22:13:42.433Z,102055.34
2022-10-11T22:16:11.757Z,102053.56
2022-10-11T22:18:38.465Z,102047.88
2022-10-11T22:21:13.336Z,102045.91
2022-10-11T22:23:41.265Z,102042.88
2022-10-11T22:26:10.156Z,102047.78
2022-10-11T22:28:36.748Z,102043.72
2022-10-11T22:31:05.447Z,102042.53
2022-10-11T22:33:32.293Z,102043.09
2022-10-11T22:36:00.479Z,102047.91
2022-10-11T22:38:27.387Z,102048.09
2022-10-11T22:40:54.343Z,102040.84
2022-10-11T22:43:20.853Z,102042.63
2022-10-11T22:45:47.257Z,102047.59
2022-10-11T22:48:13.680Z,102040.75
2022-10-11T22:50:40.247Z,102037.84
2022-10-11T22:53:07.816Z,102040.47
2022-10-11T22:55:34.582Z,102044.34
2022-10-11T22:58:01.245Z,102039.00
2022-10-11T23:00:27.678Z,102046.38
2022-10-11T23:02:54.097Z,102041.34
2022-10-11T23:05:20.499Z,102049.53
2022-10-11T23:07:47.254Z,102041.63
2022-10-11T23:10:14.067Z,102040.78
2022-10-11T23:12:40.672Z,102042.56
2022-10-11T23:15:07.871Z,102049.13
2022-10-11T23:17:34.523Z,102049.59
2022-10-11T23:20:01.284Z,102040.59
2022-10-11T23:22:28.078Z,102049.59
2022-10-11T23:24:54.496Z,102046.03
2022-10-11T23:27:21.038Z,102039.13
2022-10-11T23:29:47.488Z,102047.72
2022-10-11T23:32:13.906Z,102048.69
2022-10-11T23:34:40.351Z,102050.38
2022-10-11T23:37:06.828Z,102050.38
2022-10-11T23:39:33.229Z,102042.72
2022-10-11T23:41:59.586Z,102048.13
2022-10-11T23:44:26.040Z,102039.91
2022-10-11T23:46:52.465Z,102038.91
2022-10-11T23:49:18.883Z,102042.50
2022-10-11T23:51:45.245Z,102048.31
2022-10-11T23:54:11.801Z,102051.44
2022-10-11T23:56:38.282Z,102047.84
2022-10-11T23:59:04.705Z,102046.66
